sensor_id;sensor_type;location;lat;lon;timestamp;P1;durP1;ratioP1;P2;durP2;ratioP2
71207;SDS011;58938;49.868;8.646;2024-01-30T00:01:51;22.95;;;10.80;;
71207;SDS011;58938;49.868;8.646;2024-01-30T00:04:17;19.97;;;10.50;;
71207;SDS011;58938;49.868;8.646;2024-01-30T00:06:43;20.83;;;9.87;;
71207;SDS011;58938;49.868;8.646;2024-01-30T00:09:09;20.15;;;10.45;;
71207;SDS011;58938;49.868;8.646;2024-01-30T00:11:36;18.45;;;10.70;;
71207;SDS011;58938;49.868;8.646;2024-01-30T00:14:02;17.15;;;10.52;;
71207;SDS011;58938;49.868;8.646;2024-01-30T00:16:28;19.83;;;9.87;;
71207;SDS011;58938;49.868;8.646;2024-01-30T00:18:54;18.17;;;9.85;;
71207;SDS011;58938;49.868;8.646;2024-01-30T00:21:20;18.15;;;10.13;;
71207;SDS011;58938;49.868;8.646;2024-01-30T00:23:46;23.98;;;11.75;;
71207;SDS011;58938;49.868;8.646;2024-01-30T00:26:12;20.23;;;11.02;;
71207;SDS011;58938;49.868;8.646;2024-01-30T00:28:39;16.00;;;9.13;;
71207;SDS011;58938;49.868;8.646;2024-01-30T00:31:05;16.30;;;9.70;;
71207;SDS011;58938;49.868;8.646;2024-01-30T00:33:31;19.10;;;10.25;;
71207;SDS011;58938;49.868;8.646;2024-01-30T00:35:57;14.55;;;8.70;;
71207;SDS011;58938;49.868;8.646;2024-01-30T00:38:23;16.93;;;9.13;;
71207;SDS011;58938;49.868;8.646;2024-01-30T00:40:49;18.98;;;10.30;;
71207;SDS011;58938;49.868;8.646;2024-01-30T00:43:15;18.88;;;9.45;;
71207;SDS011;58938;49.868;8.646;2024-01-30T00:45:43;18.17;;;9.93;;
71207;SDS011;58938;49.868;8.646;2024-01-30T00:48:09;19.03;;;9.53;;
71207;SDS011;58938;49.868;8.646;2024-01-30T00:50:35;18.15;;;9.23;;
71207;SDS011;58938;49.868;8.646;2024-01-30T00:53:01;16.92;;;10.02;;
71207;SDS011;58938;49.868;8.646;2024-01-30T00:55:27;16.80;;;9.23;;
71207;SDS011;58938;49.868;8.646;2024-01-30T00:57:53;17.60;;;10.30;;
71207;SDS011;58938;49.868;8.646;2024-01-30T01:00:19;16.13;;;9.32;;
71207;SDS011;58938;49.868;8.646;2024-01-30T01:02:46;15.07;;;8.90;;
71207;SDS011;58938;49.868;8.646;2024-01-30T01:05:12;15.57;;;9.57;;
71207;SDS011;58938;49.868;8.646;2024-01-30T01:07:38;15.70;;;9.32;;
71207;SDS011;58938;49.868;8.646;2024-01-30T01:10:05;19.80;;;9.67;;
71207;SDS011;58938;49.868;8.646;2024-01-30T01:12:31;17.38;;;9.52;;
71207;SDS011;58938;49.868;8.646;2024-01-30T01:14:57;16.20;;;10.30;;
71207;SDS011;58938;49.868;8.646;2024-01-30T01:17:23;18.35;;;9.48;;
71207;SDS011;58938;49.868;8.646;2024-01-30T01:19:49;16.33;;;9.30;;
71207;SDS011;58938;49.868;8.646;2024-01-30T01:22:15;16.48;;;9.30;;
71207;SDS011;58938;49.868;8.646;2024-01-30T01:24:42;17.92;;;10.57;;
71207;SDS011;58938;49.868;8.646;2024-01-30T01:27:08;14.33;;;9.13;;
71207;SDS011;58938;49.868;8.646;2024-01-30T01:29:34;17.13;;;9.77;;
71207;SDS011;58938;49.868;8.646;2024-01-30T01:32:00;17.38;;;9.85;;
71207;SDS011;58938;49.868;8.646;2024-01-30T01:34:26;15.80;;;9.50;;
71207;SDS011;58938;49.868;8.646;2024-01-30T01:36:52;15.23;;;8.60;;
71207;SDS011;58938;49.868;8.646;2024-01-30T01:39:20;19.52;;;9.98;;
71207;SDS011;58938;49.868;8.646;2024-01-30T01:41:46;16.77;;;9.25;;
71207;SDS011;58938;49.868;8.646;2024-01-30T01:44:12;18.35;;;9.75;;
71207;SDS011;58938;49.868;8.646;2024-01-30T01:46:38;15.03;;;8.50;;
71207;SDS011;58938;49.868;8.646;2024-01-30T01:49:07;17.33;;;9.43;;
71207;SDS011;58938;49.868;8.646;2024-01-30T01:51:34;17.13;;;9.48;;
71207;SDS011;58938;49.868;8.646;2024-01-30T01:54:01;18.55;;;9.30;;
71207;SDS011;58938;49.868;8.646;2024-01-30T01:56:28;19.65;;;9.10;;
71207;SDS011;58938;49.868;8.646;2024-01-30T01:58:55;15.77;;;9.37;;
71207;SDS011;58938;49.868;8.646;2024-01-30T02:01:21;17.08;;;9.02;;
71207;SDS011;58938;49.868;8.646;2024-01-30T02:03:47;17.15;;;10.32;;
71207;SDS011;58938;49.868;8.646;2024-01-30T02:06:13;17.75;;;9.40;;
71207;SDS011;58938;49.868;8.646;2024-01-30T02:08:39;15.07;;;9.52;;
71207;SDS011;58938;49.868;8.646;2024-01-30T02:11:05;18.27;;;9.07;;
71207;SDS011;58938;49.868;8.646;2024-01-30T02:13:31;16.77;;;9.05;;
71207;SDS011;58938;49.868;8.646;2024-01-30T02:15:57;17.92;;;9.48;;
71207;SDS011;58938;49.868;8.646;2024-01-30T02:18:23;17.20;;;8.95;;
71207;SDS011;58938;49.868;8.646;2024-01-30T02:20:50;14.87;;;9.87;;
71207;SDS011;58938;49.868;8.646;2024-01-30T02:23:19;17.50;;;9.35;;
71207;SDS011;58938;49.868;8.646;2024-01-30T02:25:45;17.50;;;9.52;;
71207;SDS011;58938;49.868;8.646;2024-01-30T02:28:12;17.85;;;9.73;;
71207;SDS011;58938;49.868;8.646;2024-01-30T02:30:42;16.30;;;9.73;;
71207;SDS011;58938;49.868;8.646;2024-01-30T02:33:08;18.80;;;9.40;;
71207;SDS011;58938;49.868;8.646;2024-01-30T02:35:34;16.77;;;8.82;;
71207;SDS011;58938;49.868;8.646;2024-01-30T02:38:00;15.52;;;9.45;;
71207;SDS011;58938;49.868;8.646;2024-01-30T02:40:26;15.40;;;9.68;;
71207;SDS011;58938;49.868;8.646;2024-01-30T02:42:52;16.40;;;8.57;;
71207;SDS011;58938;49.868;8.646;2024-01-30T02:45:18;17.60;;;9.75;;
71207;SDS011;58938;49.868;8.646;2024-01-30T02:47:45;16.85;;;9.48;;
71207;SDS011;58938;49.868;8.646;2024-01-30T02:50:11;16.25;;;9.55;;
71207;SDS011;58938;49.868;8.646;2024-01-30T02:52:37;14.27;;;8.97;;
71207;SDS011;58938;49.868;8.646;2024-01-30T02:55:03;15.73;;;9.07;;
71207;SDS011;58938;49.868;8.646;2024-01-30T02:57:29;16.98;;;9.73;;
71207;SDS011;58938;49.868;8.646;2024-01-30T02:59:55;15.45;;;9.25;;
71207;SDS011;58938;49.868;8.646;2024-01-30T03:02:21;17.97;;;10.80;;
71207;SDS011;58938;49.868;8.646;2024-01-30T03:04:47;18.20;;;9.30;;
71207;SDS011;58938;49.868;8.646;2024-01-30T03:07:13;16.20;;;9.68;;
71207;SDS011;58938;49.868;8.646;2024-01-30T03:09:40;16.70;;;8.82;;
71207;SDS011;58938;49.868;8.646;2024-01-30T03:12:07;18.08;;;10.23;;
71207;SDS011;58938;49.868;8.646;2024-01-30T03:14:33;18.97;;;8.73;;
71207;SDS011;58938;49.868;8.646;2024-01-30T03:16:59;19.48;;;10.07;;
71207;SDS011;58938;49.868;8.646;2024-01-30T03:19:25;19.30;;;9.15;;
71207;SDS011;58938;49.868;8.646;2024-01-30T03:21:51;17.20;;;9.70;;
71207;SDS011;58938;49.868;8.646;2024-01-30T03:24:17;15.40;;;9.23;;
71207;SDS011;58938;49.868;8.646;2024-01-30T03:26:43;16.17;;;9.07;;
71207;SDS011;58938;49.868;8.646;2024-01-30T03:29:09;16.58;;;9.35;;
71207;SDS011;58938;49.868;8.646;2024-01-30T03:31:35;17.37;;;9.07;;
71207;SDS011;58938;49.868;8.646;2024-01-30T03:34:01;17.08;;;9.98;;
71207;SDS011;58938;49.868;8.646;2024-01-30T03:36:27;16.77;;;9.88;;
71207;SDS011;58938;49.868;8.646;2024-01-30T03:38:53;16.77;;;9.60;;
71207;SDS011;58938;49.868;8.646;2024-01-30T03:41:20;19.73;;;10.07;;
71207;SDS011;58938;49.868;8.646;2024-01-30T03:43:47;18.15;;;8.98;;
71207;SDS011;58938;49.868;8.646;2024-01-30T03:46:13;17.17;;;9.10;;
71207;SDS011;58938;49.868;8.646;2024-01-30T03:48:39;18.95;;;9.52;;
71207;SDS011;58938;49.868;8.646;2024-01-30T03:51:05;17.40;;;10.20;;
71207;SDS011;58938;49.868;8.646;2024-01-30T03:53:31;15.70;;;9.02;;
71207;SDS011;58938;49.868;8.646;2024-01-30T03:55:57;15.70;;;8.93;;
71207;SDS011;58938;49.868;8.646;2024-01-30T03:58:23;19.55;;;10.10;;
71207;SDS011;58938;49.868;8.646;2024-01-30T04:00:49;15.60;;;9.13;;
71207;SDS011;58938;49.868;8.646;2024-01-30T04:03:15;15.50;;;9.80;;
71207;SDS011;58938;49.868;8.646;2024-01-30T04:05:41;18.73;;;9.63;;
71207;SDS011;58938;49.868;8.646;2024-01-30T04:08:07;16.27;;;9.90;;
71207;SDS011;58938;49.868;8.646;2024-01-30T04:10:33;17.40;;;9.30;;
71207;SDS011;58938;49.868;8.646;2024-01-30T04:12:59;19.52;;;10.13;;
71207;SDS011;58938;49.868;8.646;2024-01-30T04:15:25;16.10;;;10.13;;
71207;SDS011;58938;49.868;8.646;2024-01-30T04:17:51;17.75;;;9.20;;
71207;SDS011;58938;49.868;8.646;2024-01-30T04:20:17;21.70;;;10.55;;
71207;SDS011;58938;49.868;8.646;2024-01-30T04:22:46;20.10;;;9.57;;
71207;SDS011;58938;49.868;8.646;2024-01-30T04:25:13;16.85;;;10.18;;
71207;SDS011;58938;49.868;8.646;2024-01-30T04:27:39;17.63;;;9.82;;
71207;SDS011;58938;49.868;8.646;2024-01-30T04:30:05;15.60;;;10.48;;
71207;SDS011;58938;49.868;8.646;2024-01-30T04:32:31;21.47;;;10.20;;
71207;SDS011;58938;49.868;8.646;2024-01-30T04:34:57;19.48;;;11.07;;
71207;SDS011;58938;49.868;8.646;2024-01-30T04:37:23;22.17;;;11.23;;
71207;SDS011;58938;49.868;8.646;2024-01-30T04:39:50;19.63;;;10.50;;
71207;SDS011;58938;49.868;8.646;2024-01-30T04:42:16;19.02;;;10.43;;
71207;SDS011;58938;49.868;8.646;2024-01-30T04:44:42;18.93;;;11.30;;
71207;SDS011;58938;49.868;8.646;2024-01-30T04:47:08;24.88;;;12.85;;
71207;SDS011;58938;49.868;8.646;2024-01-30T04:49:36;24.05;;;12.80;;
71207;SDS011;58938;49.868;8.646;2024-01-30T04:52:02;20.08;;;11.15;;
71207;SDS011;58938;49.868;8.646;2024-01-30T04:54:28;20.83;;;10.98;;
71207;SDS011;58938;49.868;8.646;2024-01-30T04:56:54;19.33;;;10.57;;
71207;SDS011;58938;49.868;8.646;2024-01-30T04:59:20;19.33;;;10.82;;
71207;SDS011;58938;49.868;8.646;2024-01-30T05:01:46;19.88;;;11.07;;
71207;SDS011;58938;49.868;8.646;2024-01-30T05:04:12;16.17;;;10.60;;
71207;SDS011;58938;49.868;8.646;2024-01-30T05:06:38;16.17;;;9.00;;
71207;SDS011;58938;49.868;8.646;2024-01-30T05:09:04;18.90;;;10.75;;
71207;SDS011;58938;49.868;8.646;2024-01-30T05:11:30;20.88;;;10.93;;
71207;SDS011;58938;49.868;8.646;2024-01-30T05:13:56;18.60;;;10.03;;
71207;SDS011;58938;49.868;8.646;2024-01-30T05:16:22;19.13;;;11.20;;
71207;SDS011;58938;49.868;8.646;2024-01-30T05:18:48;19.05;;;11.50;;
71207;SDS011;58938;49.868;8.646;2024-01-30T05:21:14;20.48;;;11.48;;
71207;SDS011;58938;49.868;8.646;2024-01-30T05:23:40;19.70;;;10.83;;
71207;SDS011;58938;49.868;8.646;2024-01-30T05:26:06;17.27;;;10.60;;
71207;SDS011;58938;49.868;8.646;2024-01-30T05:28:32;17.92;;;10.40;;
71207;SDS011;58938;49.868;8.646;2024-01-30T05:30:58;17.63;;;10.70;;
71207;SDS011;58938;49.868;8.646;2024-01-30T05:33:24;18.50;;;10.17;;
71207;SDS011;58938;49.868;8.646;2024-01-30T05:35:50;23.45;;;11.57;;
71207;SDS011;58938;49.868;8.646;2024-01-30T05:38:19;20.52;;;10.57;;
71207;SDS011;58938;49.868;8.646;2024-01-30T05:40:45;20.58;;;11.30;;
71207;SDS011;58938;49.868;8.646;2024-01-30T05:43:11;19.57;;;11.20;;
71207;SDS011;58938;49.868;8.646;2024-01-30T05:45:37;20.40;;;10.57;;
71207;SDS011;58938;49.868;8.646;2024-01-30T05:48:03;20.33;;;10.23;;
71207;SDS011;58938;49.868;8.646;2024-01-30T05:50:29;20.20;;;10.32;;
71207;SDS011;58938;49.868;8.646;2024-01-30T05:52:55;18.77;;;11.03;;
71207;SDS011;58938;49.868;8.646;2024-01-30T05:55:21;20.52;;;10.38;;
71207;SDS011;58938;49.868;8.646;2024-01-30T05:57:47;20.92;;;11.27;;
71207;SDS011;58938;49.868;8.646;2024-01-30T06:00:13;18.08;;;10.57;;
71207;SDS011;58938;49.868;8.646;2024-01-30T06:02:39;15.87;;;9.77;;
71207;SDS011;58938;49.868;8.646;2024-01-30T06:05:05;18.65;;;10.75;;
71207;SDS011;58938;49.868;8.646;2024-01-30T06:07:31;19.80;;;11.27;;
71207;SDS011;58938;49.868;8.646;2024-01-30T06:09:57;16.90;;;10.48;;
71207;SDS011;58938;49.868;8.646;2024-01-30T06:12:25;17.63;;;10.17;;
71207;SDS011;58938;49.868;8.646;2024-01-30T06:14:51;22.13;;;9.85;;
71207;SDS011;58938;49.868;8.646;2024-01-30T06:17:19;21.65;;;9.85;;
71207;SDS011;58938;49.868;8.646;2024-01-30T06:19:45;19.17;;;11.32;;
71207;SDS011;58938;49.868;8.646;2024-01-30T06:22:11;19.27;;;9.98;;
71207;SDS011;58938;49.868;8.646;2024-01-30T06:24:37;17.55;;;10.68;;
71207;SDS011;58938;49.868;8.646;2024-01-30T06:27:03;19.13;;;10.70;;
71207;SDS011;58938;49.868;8.646;2024-01-30T06:29:29;17.85;;;10.60;;
71207;SDS011;58938;49.868;8.646;2024-01-30T06:31:55;18.53;;;9.97;;
71207;SDS011;58938;49.868;8.646;2024-01-30T06:34:21;18.77;;;9.95;;
71207;SDS011;58938;49.868;8.646;2024-01-30T06:36:47;19.50;;;10.70;;
71207;SDS011;58938;49.868;8.646;2024-01-30T06:39:13;20.45;;;10.23;;
71207;SDS011;58938;49.868;8.646;2024-01-30T06:41:39;17.17;;;9.15;;
71207;SDS011;58938;49.868;8.646;2024-01-30T06:44:05;20.38;;;10.55;;
71207;SDS011;58938;49.868;8.646;2024-01-30T06:46:33;19.75;;;10.45;;
71207;SDS011;58938;49.868;8.646;2024-01-30T06:48:59;20.75;;;10.75;;
71207;SDS011;58938;49.868;8.646;2024-01-30T06:51:26;16.37;;;9.47;;
71207;SDS011;58938;49.868;8.646;2024-01-30T06:53:52;17.60;;;10.00;;
71207;SDS011;58938;49.868;8.646;2024-01-30T06:56:18;19.17;;;10.18;;
71207;SDS011;58938;49.868;8.646;2024-01-30T06:58:50;17.05;;;10.85;;
71207;SDS011;58938;49.868;8.646;2024-01-30T07:01:16;21.38;;;11.30;;
71207;SDS011;58938;49.868;8.646;2024-01-30T07:03:42;20.88;;;10.60;;
71207;SDS011;58938;49.868;8.646;2024-01-30T07:06:09;18.75;;;10.80;;
71207;SDS011;58938;49.868;8.646;2024-01-30T07:08:36;17.13;;;10.45;;
71207;SDS011;58938;49.868;8.646;2024-01-30T07:11:05;19.95;;;10.20;;
71207;SDS011;58938;49.868;8.646;2024-01-30T07:13:31;19.35;;;11.25;;
71207;SDS011;58938;49.868;8.646;2024-01-30T07:15:57;22.30;;;10.70;;
71207;SDS011;58938;49.868;8.646;2024-01-30T07:18:23;19.58;;;10.38;;
71207;SDS011;58938;49.868;8.646;2024-01-30T07:20:49;21.83;;;11.32;;
71207;SDS011;58938;49.868;8.646;2024-01-30T07:23:15;21.10;;;10.65;;
71207;SDS011;58938;49.868;8.646;2024-01-30T07:25:45;22.13;;;11.43;;
71207;SDS011;58938;49.868;8.646;2024-01-30T07:28:13;17.87;;;11.30;;
71207;SDS011;58938;49.868;8.646;2024-01-30T07:30:41;21.17;;;10.68;;
71207;SDS011;58938;49.868;8.646;2024-01-30T07:33:07;22.40;;;11.65;;
71207;SDS011;58938;49.868;8.646;2024-01-30T07:35:33;22.95;;;10.82;;
71207;SDS011;58938;49.868;8.646;2024-01-30T07:37:59;18.63;;;10.95;;
71207;SDS011;58938;49.868;8.646;2024-01-30T07:40:25;21.83;;;10.93;;
71207;SDS011;58938;49.868;8.646;2024-01-30T07:42:53;19.17;;;11.10;;
71207;SDS011;58938;49.868;8.646;2024-01-30T07:45:19;20.30;;;10.45;;
71207;SDS011;58938;49.868;8.646;2024-01-30T07:47:49;25.60;;;11.55;;
71207;SDS011;58938;49.868;8.646;2024-01-30T07:50:15;21.70;;;10.93;;
71207;SDS011;58938;49.868;8.646;2024-01-30T07:52:45;20.40;;;11.05;;
71207;SDS011;58938;49.868;8.646;2024-01-30T07:55:11;18.98;;;10.98;;
71207;SDS011;58938;49.868;8.646;2024-01-30T07:57:40;20.23;;;10.85;;
71207;SDS011;58938;49.868;8.646;2024-01-30T08:00:06;23.65;;;12.05;;
71207;SDS011;58938;49.868;8.646;2024-01-30T08:02:32;21.17;;;11.03;;
71207;SDS011;58938;49.868;8.646;2024-01-30T08:04:58;24.40;;;12.02;;
71207;SDS011;58938;49.868;8.646;2024-01-30T08:07:24;22.17;;;11.95;;
71207;SDS011;58938;49.868;8.646;2024-01-30T08:09:50;19.40;;;11.10;;
71207;SDS011;58938;49.868;8.646;2024-01-30T08:12:16;22.23;;;12.27;;
71207;SDS011;58938;49.868;8.646;2024-01-30T08:14:42;22.27;;;10.80;;
71207;SDS011;58938;49.868;8.646;2024-01-30T08:17:08;20.50;;;12.15;;
71207;SDS011;58938;49.868;8.646;2024-01-30T08:19:34;23.02;;;11.85;;
71207;SDS011;58938;49.868;8.646;2024-01-30T08:22:09;21.27;;;11.70;;
71207;SDS011;58938;49.868;8.646;2024-01-30T08:24:35;21.20;;;12.02;;
71207;SDS011;58938;49.868;8.646;2024-01-30T08:27:01;22.92;;;12.25;;
71207;SDS011;58938;49.868;8.646;2024-01-30T08:29:27;21.65;;;12.52;;
71207;SDS011;58938;49.868;8.646;2024-01-30T08:31:54;23.07;;;12.63;;
71207;SDS011;58938;49.868;8.646;2024-01-30T08:34:20;22.75;;;11.95;;
71207;SDS011;58938;49.868;8.646;2024-01-30T08:36:49;22.92;;;12.85;;
71207;SDS011;58938;49.868;8.646;2024-01-30T08:39:15;27.27;;;12.25;;
71207;SDS011;58938;49.868;8.646;2024-01-30T08:41:41;22.25;;;12.55;;
71207;SDS011;58938;49.868;8.646;2024-01-30T08:44:08;23.03;;;12.40;;
71207;SDS011;58938;49.868;8.646;2024-01-30T08:46:36;23.08;;;12.65;;
71207;SDS011;58938;49.868;8.646;2024-01-30T08:49:02;24.23;;;12.90;;
71207;SDS011;58938;49.868;8.646;2024-01-30T08:51:29;24.48;;;12.65;;
71207;SDS011;58938;49.868;8.646;2024-01-30T08:53:55;26.27;;;13.57;;
71207;SDS011;58938;49.868;8.646;2024-01-30T08:56:21;26.43;;;12.20;;
71207;SDS011;58938;49.868;8.646;2024-01-30T08:58:47;23.92;;;12.45;;
71207;SDS011;58938;49.868;8.646;2024-01-30T09:01:13;20.50;;;11.95;;
71207;SDS011;58938;49.868;8.646;2024-01-30T09:03:39;21.92;;;12.35;;
71207;SDS011;58938;49.868;8.646;2024-01-30T09:06:08;27.07;;;13.63;;
71207;SDS011;58938;49.868;8.646;2024-01-30T09:08:34;22.60;;;11.63;;
71207;SDS011;58938;49.868;8.646;2024-01-30T09:11:00;21.88;;;12.52;;
71207;SDS011;58938;49.868;8.646;2024-01-30T09:13:26;22.15;;;11.90;;
71207;SDS011;58938;49.868;8.646;2024-01-30T09:15:52;22.23;;;13.03;;
71207;SDS011;58938;49.868;8.646;2024-01-30T09:18:18;23.55;;;12.23;;
71207;SDS011;58938;49.868;8.646;2024-01-30T09:20:44;22.65;;;13.45;;
71207;SDS011;58938;49.868;8.646;2024-01-30T09:23:14;26.02;;;13.15;;
71207;SDS011;58938;49.868;8.646;2024-01-30T09:25:40;24.08;;;14.02;;
71207;SDS011;58938;49.868;8.646;2024-01-30T09:28:06;27.33;;;12.75;;
71207;SDS011;58938;49.868;8.646;2024-01-30T09:30:32;22.85;;;13.10;;
71207;SDS011;58938;49.868;8.646;2024-01-30T09:32:58;22.80;;;12.70;;
71207;SDS011;58938;49.868;8.646;2024-01-30T09:35:24;24.38;;;13.38;;
71207;SDS011;58938;49.868;8.646;2024-01-30T09:37:50;23.25;;;14.20;;
71207;SDS011;58938;49.868;8.646;2024-01-30T09:40:17;24.55;;;13.35;;
71207;SDS011;58938;49.868;8.646;2024-01-30T09:42:44;24.80;;;12.10;;
71207;SDS011;58938;49.868;8.646;2024-01-30T09:45:11;22.13;;;13.85;;
71207;SDS011;58938;49.868;8.646;2024-01-30T09:47:42;23.97;;;12.83;;
71207;SDS011;58938;49.868;8.646;2024-01-30T09:50:09;26.42;;;13.85;;
71207;SDS011;58938;49.868;8.646;2024-01-30T09:52:35;26.95;;;14.73;;
71207;SDS011;58938;49.868;8.646;2024-01-30T09:55:02;24.08;;;13.35;;
71207;SDS011;58938;49.868;8.646;2024-01-30T09:57:28;27.67;;;13.73;;
71207;SDS011;58938;49.868;8.646;2024-01-30T09:59:54;24.03;;;12.83;;
71207;SDS011;58938;49.868;8.646;2024-01-30T10:02:20;23.70;;;13.63;;
71207;SDS011;58938;49.868;8.646;2024-01-30T10:04:50;25.45;;;12.52;;
71207;SDS011;58938;49.868;8.646;2024-01-30T10:07:17;22.98;;;12.65;;
71207;SDS011;58938;49.868;8.646;2024-01-30T10:09:43;26.13;;;14.23;;
71207;SDS011;58938;49.868;8.646;2024-01-30T10:12:09;21.67;;;12.30;;
71207;SDS011;58938;49.868;8.646;2024-01-30T10:14:39;20.50;;;12.68;;
71207;SDS011;58938;49.868;8.646;2024-01-30T10:17:07;22.92;;;13.30;;
71207;SDS011;58938;49.868;8.646;2024-01-30T10:19:33;24.80;;;13.48;;
71207;SDS011;58938;49.868;8.646;2024-01-30T10:22:02;20.92;;;13.73;;
71207;SDS011;58938;49.868;8.646;2024-01-30T10:24:28;20.83;;;12.33;;
71207;SDS011;58938;49.868;8.646;2024-01-30T10:26:55;24.08;;;13.02;;
71207;SDS011;58938;49.868;8.646;2024-01-30T10:29:21;22.83;;;12.75;;
71207;SDS011;58938;49.868;8.646;2024-01-30T10:31:57;26.42;;;12.77;;
71207;SDS011;58938;49.868;8.646;2024-01-30T10:34:23;26.63;;;12.67;;
71207;SDS011;58938;49.868;8.646;2024-01-30T10:36:50;20.90;;;12.45;;
71207;SDS011;58938;49.868;8.646;2024-01-30T10:39:16;23.83;;;12.38;;
71207;SDS011;58938;49.868;8.646;2024-01-30T10:41:43;25.33;;;13.07;;
71207;SDS011;58938;49.868;8.646;2024-01-30T10:44:09;24.33;;;12.93;;
71207;SDS011;58938;49.868;8.646;2024-01-30T10:46:37;21.97;;;12.30;;
71207;SDS011;58938;49.868;8.646;2024-01-30T10:49:03;25.60;;;12.18;;
71207;SDS011;58938;49.868;8.646;2024-01-30T10:51:30;24.33;;;13.40;;
71207;SDS011;58938;49.868;8.646;2024-01-30T10:53:56;22.30;;;12.30;;
71207;SDS011;58938;49.868;8.646;2024-01-30T10:56:23;24.30;;;12.80;;
71207;SDS011;58938;49.868;8.646;2024-01-30T10:58:53;22.87;;;12.83;;
71207;SDS011;58938;49.868;8.646;2024-01-30T11:01:20;23.13;;;12.40;;
71207;SDS011;58938;49.868;8.646;2024-01-30T11:03:53;22.42;;;12.20;;
71207;SDS011;58938;49.868;8.646;2024-01-30T11:06:22;21.30;;;12.18;;
71207;SDS011;58938;49.868;8.646;2024-01-30T11:09:01;20.25;;;12.32;;
71207;SDS011;58938;49.868;8.646;2024-01-30T11:11:29;22.33;;;12.37;;
71207;SDS011;58938;49.868;8.646;2024-01-30T11:13:55;22.25;;;13.13;;
71207;SDS011;58938;49.868;8.646;2024-01-30T11:16:21;23.73;;;12.52;;
71207;SDS011;58938;49.868;8.646;2024-01-30T11:18:50;20.10;;;11.75;;
71207;SDS011;58938;49.868;8.646;2024-01-30T11:21:19;20.37;;;11.50;;
71207;SDS011;58938;49.868;8.646;2024-01-30T11:23:45;22.48;;;12.90;;
71207;SDS011;58938;49.868;8.646;2024-01-30T11:26:11;23.23;;;12.45;;
71207;SDS011;58938;49.868;8.646;2024-01-30T11:28:37;22.25;;;12.68;;
71207;SDS011;58938;49.868;8.646;2024-01-30T11:31:06;21.97;;;10.90;;
71207;SDS011;58938;49.868;8.646;2024-01-30T11:33:33;22.58;;;11.00;;
71207;SDS011;58938;49.868;8.646;2024-01-30T11:35:59;20.33;;;12.43;;
71207;SDS011;58938;49.868;8.646;2024-01-30T11:38:26;19.95;;;11.48;;
71207;SDS011;58938;49.868;8.646;2024-01-30T11:40:52;20.85;;;12.00;;
71207;SDS011;58938;49.868;8.646;2024-01-30T11:43:18;25.27;;;12.70;;
71207;SDS011;58938;49.868;8.646;2024-01-30T11:45:44;21.67;;;11.55;;
71207;SDS011;58938;49.868;8.646;2024-01-30T11:48:13;18.08;;;10.35;;
71207;SDS011;58938;49.868;8.646;2024-01-30T11:50:39;18.02;;;10.48;;
71207;SDS011;58938;49.868;8.646;2024-01-30T11:53:06;18.30;;;10.27;;
71207;SDS011;58938;49.868;8.646;2024-01-30T11:55:32;16.58;;;10.13;;
71207;SDS011;58938;49.868;8.646;2024-01-30T11:57:59;17.80;;;9.25;;
71207;SDS011;58938;49.868;8.646;2024-01-30T12:00:25;17.95;;;9.15;;
71207;SDS011;58938;49.868;8.646;2024-01-30T12:02:51;16.80;;;10.05;;
71207;SDS011;58938;49.868;8.646;2024-01-30T12:05:21;16.87;;;9.50;;
71207;SDS011;58938;49.868;8.646;2024-01-30T12:07:47;16.70;;;9.48;;
71207;SDS011;58938;49.868;8.646;2024-01-30T12:10:13;17.80;;;10.00;;
71207;SDS011;58938;49.868;8.646;2024-01-30T12:12:39;15.77;;;9.45;;
71207;SDS011;58938;49.868;8.646;2024-01-30T12:15:06;19.08;;;11.15;;
71207;SDS011;58938;49.868;8.646;2024-01-30T12:17:33;16.20;;;9.90;;
71207;SDS011;58938;49.868;8.646;2024-01-30T12:20:05;18.63;;;9.80;;
71207;SDS011;58938;49.868;8.646;2024-01-30T12:22:36;19.15;;;9.07;;
71207;SDS011;58938;49.868;8.646;2024-01-30T12:25:04;17.42;;;10.73;;
71207;SDS011;58938;49.868;8.646;2024-01-30T12:27:30;14.55;;;9.27;;
71207;SDS011;58938;49.868;8.646;2024-01-30T12:29:57;19.77;;;9.80;;
71207;SDS011;58938;49.868;8.646;2024-01-30T12:32:23;18.33;;;9.77;;
71207;SDS011;58938;49.868;8.646;2024-01-30T12:34:49;18.65;;;9.23;;
71207;SDS011;58938;49.868;8.646;2024-01-30T12:37:15;15.35;;;8.68;;
71207;SDS011;58938;49.868;8.646;2024-01-30T12:39:47;18.98;;;9.32;;
71207;SDS011;58938;49.868;8.646;2024-01-30T12:42:13;19.20;;;9.47;;
71207;SDS011;58938;49.868;8.646;2024-01-30T12:44:40;16.65;;;8.90;;
71207;SDS011;58938;49.868;8.646;2024-01-30T12:47:08;19.20;;;8.77;;
71207;SDS011;58938;49.868;8.646;2024-01-30T12:49:35;16.75;;;9.70;;
71207;SDS011;58938;49.868;8.646;2024-01-30T12:52:01;15.00;;;9.60;;
71207;SDS011;58938;49.868;8.646;2024-01-30T12:54:27;16.48;;;8.65;;
71207;SDS011;58938;49.868;8.646;2024-01-30T12:56:53;14.75;;;8.50;;
71207;SDS011;58938;49.868;8.646;2024-01-30T12:59:19;18.35;;;8.55;;
71207;SDS011;58938;49.868;8.646;2024-01-30T13:01:45;15.80;;;9.13;;
71207;SDS011;58938;49.868;8.646;2024-01-30T13:04:11;16.07;;;9.00;;
71207;SDS011;58938;49.868;8.646;2024-01-30T13:06:37;17.77;;;9.43;;
71207;SDS011;58938;49.868;8.646;2024-01-30T13:09:03;16.05;;;9.18;;
71207;SDS011;58938;49.868;8.646;2024-01-30T13:11:30;16.20;;;9.30;;
71207;SDS011;58938;49.868;8.646;2024-01-30T13:13:56;15.52;;;9.07;;
71207;SDS011;58938;49.868;8.646;2024-01-30T13:16:22;18.60;;;9.70;;
71207;SDS011;58938;49.868;8.646;2024-01-30T13:18:48;16.08;;;9.15;;
71207;SDS011;58938;49.868;8.646;2024-01-30T13:21:14;17.60;;;8.60;;
71207;SDS011;58938;49.868;8.646;2024-01-30T13:23:40;18.98;;;9.65;;
71207;SDS011;58938;49.868;8.646;2024-01-30T13:26:07;14.93;;;8.57;;
71207;SDS011;58938;49.868;8.646;2024-01-30T13:28:32;15.93;;;9.27;;
71207;SDS011;58938;49.868;8.646;2024-01-30T13:30:58;16.08;;;9.57;;
71207;SDS011;58938;49.868;8.646;2024-01-30T13:33:25;17.40;;;8.75;;
71207;SDS011;58938;49.868;8.646;2024-01-30T13:35:51;17.50;;;9.90;;
71207;SDS011;58938;49.868;8.646;2024-01-30T13:38:17;17.98;;;8.50;;
71207;SDS011;58938;49.868;8.646;2024-01-30T13:40:43;17.33;;;9.45;;
71207;SDS011;58938;49.868;8.646;2024-01-30T13:43:09;17.00;;;9.65;;
71207;SDS011;58938;49.868;8.646;2024-01-30T13:45:35;15.50;;;9.50;;
71207;SDS011;58938;49.868;8.646;2024-01-30T13:48:01;16.80;;;9.50;;
71207;SDS011;58938;49.868;8.646;2024-01-30T13:50:28;16.60;;;10.70;;
71207;SDS011;58938;49.868;8.646;2024-01-30T13:52:54;18.55;;;9.18;;
71207;SDS011;58938;49.868;8.646;2024-01-30T13:55:20;19.10;;;9.55;;
71207;SDS011;58938;49.868;8.646;2024-01-30T13:57:46;19.37;;;9.73;;
71207;SDS011;58938;49.868;8.646;2024-01-30T14:00:12;16.10;;;8.50;;
71207;SDS011;58938;49.868;8.646;2024-01-30T14:02:41;18.00;;;9.20;;
71207;SDS011;58938;49.868;8.646;2024-01-30T14:05:07;18.05;;;9.00;;
71207;SDS011;58938;49.868;8.646;2024-01-30T14:07:33;18.37;;;9.63;;
71207;SDS011;58938;49.868;8.646;2024-01-30T14:09:59;17.45;;;9.25;;
71207;SDS011;58938;49.868;8.646;2024-01-30T14:12:25;17.65;;;8.80;;
71207;SDS011;58938;49.868;8.646;2024-01-30T14:14:51;17.98;;;9.55;;
71207;SDS011;58938;49.868;8.646;2024-01-30T14:17:17;16.30;;;9.07;;
71207;SDS011;58938;49.868;8.646;2024-01-30T14:19:43;16.05;;;9.35;;
71207;SDS011;58938;49.868;8.646;2024-01-30T14:22:09;16.50;;;9.15;;